createdAt,value
2022-08-30T00:00:24.215Z,100887.72
2022-08-30T00:02:52.004Z,100884.34
2022-08-30T00:05:19.776Z,100890.66
2022-08-30T00:07:47.477Z,100879.69
2022-08-30T00:10:15.228Z,100887.91
2022-08-30T00:12:43.463Z,100885.19
2022-08-30T00:15:12.269Z,100881.41
2022-08-30T00:17:40.096Z,100879.69
2022-08-30T00:20:07.783Z,100876.97
2022-08-30T00:22:35.468Z,100885.19
2022-08-30T00:25:03.322Z,100885.19
2022-08-30T00:27:31.083Z,100892.56
2022-08-30T00:29:58.770Z,100890.66
2022-08-30T00:32:26.499Z,100884.34
2022-08-30T00:34:54.204Z,100890.66
2022-08-30T00:37:21.954Z,100895.28
2022-08-30T00:39:49.707Z,100888.97
2022-08-30T00:42:17.538Z,100893.59
2022-08-30T00:44:45.346Z,100897.38
2022-08-30T00:47:13.104Z,100899.94
2022-08-30T00:49:40.826Z,100907.31
2022-08-30T00:52:08.563Z,100910.06
2022-08-30T00:54:36.321Z,100906.47
2022-08-30T00:57:04.011Z,100902.00
2022-08-30T00:59:31.729Z,100899.28
2022-08-30T01:02:00.305Z,100899.28
2022-08-30T01:04:28.118Z,100895.69
2022-08-30T01:06:55.893Z,100893.78
2022-08-30T01:09:23.671Z,100897.59
2022-08-30T01:11:51.376Z,100893.78
2022-08-30T01:14:21.381Z,100901.16
2022-08-30T01:16:53.685Z,100900.34
2022-08-30T01:19:22.941Z,100902.22
2022-08-30T01:21:50.785Z,100910.44
2022-08-30T01:24:19.015Z,100913.19
2022-08-30T01:26:46.736Z,100916.94
2022-08-30T01:29:14.434Z,100910.44
2022-08-30T01:31:42.203Z,100905.81
2022-08-30T01:34:10.096Z,100900.50
2022-08-30T01:36:37.839Z,100904.09
2022-08-30T01:39:12.510Z,100902.22
2022-08-30T01:41:40.211Z,100910.44
2022-08-30T01:44:07.945Z,100910.63
2022-08-30T01:46:36.155Z,100910.63
2022-08-30T01:49:03.902Z,100905.16
2022-08-30T01:51:31.611Z,100907.91
2022-08-30T01:53:59.335Z,100907.91
2022-08-30T01:56:27.056Z,100897.78
2022-08-30T01:58:57.253Z,100894.84
2022-08-30T02:01:27.090Z,100899.66
2022-08-30T02:03:54.986Z,100895.03
2022-08-30T02:06:22.864Z,100902.41
2022-08-30T02:08:50.590Z,100896.09
2022-08-30T02:11:18.299Z,100896.94
2022-08-30T02:13:46.043Z,100897.78
2022-08-30T02:16:13.798Z,100894.19
2022-08-30T02:18:41.601Z,100895.25
2022-08-30T02:21:09.295Z,100884.28
2022-08-30T02:23:37.025Z,100887.88
2022-08-30T02:26:04.717Z,100886.19
2022-08-30T02:28:32.568Z,100894.41
2022-08-30T02:31:00.443Z,100889.78
2022-08-30T02:33:28.251Z,100890.63
2022-08-30T02:35:57.127Z,100888.94
2022-08-30T02:38:24.876Z,100895.25
2022-08-30T02:40:52.561Z,100888.06
2022-08-30T02:43:20.269Z,100881.72
2022-08-30T02:45:48.034Z,100886.38
2022-08-30T02:48:15.761Z,100887.22
2022-08-30T02:50:43.454Z,100891.84
2022-08-30T02:53:16.158Z,100891.84
2022-08-30T02:55:44.136Z,100886.38
2022-08-30T02:58:12.329Z,100881.72
2022-08-30T03:00:40.530Z,100876.25
2022-08-30T03:03:08.515Z,100880.91
2022-08-30T03:05:39.808Z,100873.72
2022-08-30T03:08:07.807Z,100878.16
2022-08-30T03:10:38.389Z,100872.00
2022-08-30T03:13:07.647Z,100874.75
2022-08-30T03:15:35.416Z,100872.00
2022-08-30T03:18:03.189Z,100874.75
2022-08-30T03:20:30.953Z,100873.72
2022-08-30T03:22:58.693Z,100885.53
2022-08-30T03:25:26.468Z,100888.44
2022-08-30T03:27:54.205Z,100889.28
2022-08-30T03:30:21.935Z,100881.06
2022-08-30T03:32:49.894Z,100881.06
2022-08-30T03:35:19.189Z,100882.13
2022-08-30T03:37:46.954Z,100881.28
2022-08-30T03:40:14.744Z,100887.63
2022-08-30T03:42:43.440Z,100889.50
2022-08-30T03:45:12.080Z,100896.66
2022-08-30T03:47:39.770Z,100892.25
2022-08-30T03:50:09.593Z,100891.19
2022-08-30T03:52:37.289Z,100895.00
2022-08-30T03:55:05.165Z,100897.72
2022-08-30T03:57:33.798Z,100894.16
2022-08-30T04:00:04.378Z,100897.72
2022-08-30T04:02:32.202Z,100900.47
2022-08-30T04:04:59.987Z,100896.88
2022-08-30T04:07:27.714Z,100896.88
2022-08-30T04:09:55.498Z,100887.78
2022-08-30T04:12:23.226Z,100886.94
2022-08-30T04:14:51.027Z,100891.41
2022-08-30T04:17:18.755Z,100896.00
2022-08-30T04:19:46.929Z,100898.75
2022-08-30T04:22:14.682Z,100899.81
2022-08-30T04:24:42.752Z,100900.88
2022-08-30T04:27:10.451Z,100899.81
2022-08-30T04:29:38.188Z,100894.34
2022-08-30T04:32:06.206Z,100898.13
2022-08-30T04:34:33.985Z,100894.34
2022-08-30T04:37:01.738Z,100899.81
2022-08-30T04:39:32.660Z,100898.13
2022-08-30T04:42:00.999Z,100903.59
2022-08-30T04:44:28.711Z,100901.72
2022-08-30T04:46:56.522Z,100900.88
2022-08-30T04:49:24.288Z,100907.38
2022-08-30T04:51:52.020Z,100907.19
2022-08-30T04:54:19.764Z,100909.94
2022-08-30T04:56:47.491Z,100920.03
2022-08-30T04:59:15.235Z,100921.72
2022-08-30T05:01:45.551Z,100927.19
2022-08-30T05:04:13.778Z,100939.00
2022-08-30T05:06:48.015Z,100940.91
2022-08-30T05:09:16.108Z,100944.47
2022-08-30T05:11:44.158Z,100949.13
2022-08-30T05:14:11.892Z,100948.28
2022-08-30T05:16:39.730Z,100952.91
2022-08-30T05:19:08.022Z,100950.81
2022-08-30T05:21:35.724Z,100960.06
2022-08-30T05:24:03.396Z,100960.06
2022-08-30T05:26:31.171Z,100966.22
2022-08-30T05:28:58.966Z,100967.25
2022-08-30T05:31:26.743Z,100968.13
2022-08-30T05:33:54.518Z,100974.44
2022-08-30T05:36:22.437Z,100966.22
2022-08-30T05:38:50.264Z,100976.97
2022-08-30T05:41:17.961Z,100971.47
2022-08-30T05:43:46.059Z,100966.88
2022-08-30T05:46:14.374Z,100962.25
2022-08-30T05:48:42.220Z,100957.59
2022-08-30T05:51:12.049Z,100953.81
2022-08-30T05:53:40.582Z,100952.13
2022-08-30T05:56:08.381Z,100946.66
2022-08-30T05:58:36.113Z,100953.81
2022-08-30T06:01:11.055Z,100950.88
2022-08-30T06:03:40.513Z,100956.38
2022-08-30T06:06:08.461Z,100955.31
2022-08-30T06:08:38.267Z,100953.41
2022-08-30T06:11:20.201Z,100958.91
2022-08-30T06:13:48.792Z,100961.84
2022-08-30T06:16:18.609Z,100961.63
2022-08-30T06:18:47.222Z,100969.84
2022-08-30T06:21:16.418Z,100971.56
2022-08-30T06:23:45.399Z,100970.50
2022-08-30T06:26:14.121Z,100971.56
2022-08-30T06:28:43.190Z,100978.72
2022-08-30T06:31:16.317Z,100974.97
2022-08-30T06:33:44.389Z,100967.78
2022-08-30T06:36:13.621Z,100977.50
2022-08-30T06:38:42.181Z,100970.13
2022-08-30T06:41:10.118Z,100974.75
2022-08-30T06:50:05.429Z,100973.25
2022-08-30T06:52:36.094Z,100974.97
2022-08-30T06:55:46.870Z,100983.81
2022-08-30T06:58:15.916Z,100988.00
2022-08-30T07:01:00.495Z,100984.22
2022-08-30T07:03:39.785Z,100983.19
2022-08-30T07:09:09.517Z,100981.06
2022-08-30T07:11:42.110Z,100981.75
2022-08-30T07:17:27.659Z,100987.22
2022-08-30T07:20:10.493Z,100979.84
2022-08-30T07:22:52.123Z,100983.63
2022-08-30T07:25:53.268Z,100991.47
2022-08-30T07:28:21.278Z,100980.72
2022-08-30T07:30:49.148Z,100983.44
2022-08-30T07:33:17.134Z,100992.31
2022-08-30T07:35:45.193Z,100994.03
2022-08-30T07:38:12.952Z,100994.03
2022-08-30T07:40:41.799Z,100991.47
2022-08-30T07:43:09.602Z,100997.59
2022-08-30T07:45:37.363Z,101000.34
2022-08-30T07:48:05.737Z,101003.75
2022-08-30T07:50:33.453Z,101001.66
2022-08-30T07:53:01.637Z,100999.94
2022-08-30T07:55:29.431Z,101002.50
2022-08-30T07:57:57.325Z,101003.34
2022-08-30T08:00:25.100Z,100999.94
2022-08-30T08:02:52.882Z,100995.53
2022-08-30T08:05:24.602Z,101000.16
2022-08-30T08:07:52.603Z,101003.25
2022-08-30T08:10:20.402Z,100999.50
2022-08-30T08:12:48.271Z,100996.94
2022-08-30T08:15:16.106Z,101001.41
2022-08-30T08:17:43.817Z,101006.00
2022-08-30T08:20:11.604Z,100999.91
2022-08-30T08:22:40.203Z,101005.16
2022-08-30T08:25:08.130Z,100998.00
2022-08-30T08:27:35.861Z,101006.41
2022-08-30T08:30:03.551Z,101010.84
2022-08-30T08:32:31.283Z,101003.25
2022-08-30T08:34:59.026Z,101006.88
2022-08-30T08:37:27.998Z,101000.34
2022-08-30T08:39:55.799Z,101004.97
2022-08-30T08:42:23.543Z,101003.25
2022-08-30T08:44:54.507Z,101007.72
2022-08-30T08:47:23.065Z,101006.66
2022-08-30T08:49:51.023Z,101007.50
2022-08-30T08:52:36.112Z,101008.75
2022-08-30T08:55:04.179Z,101004.13
2022-08-30T08:57:31.951Z,100999.50
2022-08-30T08:59:59.666Z,101005.66
2022-08-30T09:02:27.435Z,101013.88
2022-08-30T09:04:55.344Z,101002.03
2022-08-30T09:07:23.126Z,101001.00
2022-08-30T09:09:50.990Z,101003.94
2022-08-30T09:12:18.883Z,101013.88
2022-08-30T09:14:48.642Z,101004.13
2022-08-30T09:17:16.395Z,101009.22
2022-08-30T09:19:44.296Z,101004.59
2022-08-30T09:22:12.295Z,101001.19
2022-08-30T09:24:40.223Z,100995.72
2022-08-30T09:27:10.492Z,101002.03
2022-08-30T09:29:38.194Z,101003.75
2022-08-30T09:32:24.808Z,100999.28
2022-08-30T09:34:53.559Z,100997.41
2022-08-30T09:37:21.395Z,100988.97
2022-08-30T09:39:49.375Z,100993.63
2022-08-30T09:42:17.865Z,100988.97
2022-08-30T09:44:45.566Z,100993.44
2022-08-30T09:47:13.303Z,100991.53
2022-08-30T09:49:41.280Z,100995.31
2022-08-30T09:52:08.947Z,100987.09
2022-08-30T09:54:36.660Z,100994.47
2022-08-30T09:57:04.375Z,100987.09
2022-08-30T09:59:39.715Z,100990.03
2022-08-30T10:02:07.462Z,100985.81
2022-08-30T10:04:35.560Z,100982.22
2022-08-30T10:07:03.402Z,100984.75
2022-08-30T10:09:31.161Z,100987.31
2022-08-30T10:11:59.497Z,100992.97
2022-08-30T10:14:27.403Z,100981.81
2022-08-30T10:16:55.268Z,100983.72
2022-08-30T10:19:22.947Z,100979.25
2022-08-30T10:21:51.113Z,100974.63
2022-08-30T10:24:20.923Z,100973.78
2022-08-30T10:26:49.026Z,100969.34
2022-08-30T10:29:16.795Z,100967.28
2022-08-30T10:31:44.562Z,100970.00
2022-08-30T10:34:12.306Z,100965.56
2022-08-30T10:36:40.022Z,100965.78
2022-08-30T10:39:07.708Z,100974.84
2022-08-30T10:41:36.894Z,100966.63
2022-08-30T10:44:04.699Z,100958.41
2022-08-30T10:46:32.464Z,100958.41
2022-08-30T10:49:00.257Z,100955.84
2022-08-30T10:51:28.166Z,100952.06
2022-08-30T10:53:55.958Z,100942.97
2022-08-30T10:56:24.450Z,100952.91
2022-08-30T10:58:54.428Z,100956.50
2022-08-30T11:01:24.581Z,100953.09
2022-08-30T11:03:56.153Z,100953.09
2022-08-30T11:06:23.888Z,100952.91
2022-08-30T11:08:51.594Z,100955.66
2022-08-30T11:11:19.525Z,100954.59
2022-08-30T11:13:48.326Z,100952.06
2022-08-30T11:16:16.393Z,100945.53
2022-08-30T11:18:44.623Z,100945.72
2022-08-30T11:21:18.738Z,100956.69
2022-08-30T11:23:46.435Z,100953.94
2022-08-30T11:26:20.652Z,100957.34
2022-08-30T11:28:49.039Z,100944.28
2022-08-30T11:31:16.747Z,100946.19
2022-08-30T11:33:46.070Z,100949.78
2022-08-30T11:36:14.062Z,100941.81
2022-08-30T11:38:41.810Z,100950.22
2022-08-30T11:41:10.491Z,100948.97
2022-08-30T11:43:40.072Z,100946.44
2022-08-30T11:46:11.394Z,100948.72
2022-08-30T11:48:53.505Z,100942.41
2022-08-30T11:51:23.412Z,100954.59
2022-08-30T11:53:51.949Z,100952.69
2022-08-30T11:56:21.271Z,100947.22
2022-08-30T11:58:49.188Z,100957.34
2022-08-30T12:01:40.758Z,100953.56
2022-08-30T12:04:06.638Z,100940.72
2022-08-30T12:06:34.404Z,100942.00
2022-08-30T12:10:32.210Z,100941.16
2022-08-30T12:11:49.816Z,100943.91
2022-08-30T12:14:17.534Z,100940.50
2022-08-30T12:17:01.861Z,100943.06
2022-08-30T12:19:30.143Z,100935.88
2022-08-30T12:21:58.458Z,100937.75
2022-08-30T12:24:26.333Z,100943.91
2022-08-30T12:26:54.023Z,100940.13
2022-08-30T12:29:21.882Z,100939.06
2022-08-30T12:31:49.915Z,100931.91
2022-08-30T12:34:17.620Z,100923.03
2022-08-30T12:36:47.032Z,100930.84
2022-08-30T12:39:14.951Z,100928.09
2022-08-30T12:41:44.484Z,100916.50
2022-08-30T12:44:12.224Z,100913.75
2022-08-30T12:46:40.011Z,100913.31
2022-08-30T12:49:07.740Z,100913.97
2022-08-30T12:51:35.479Z,100904.69
2022-08-30T12:54:03.167Z,100907.25
2022-08-30T12:56:49.966Z,100901.75
2022-08-30T12:59:18.388Z,100906.59
2022-08-30T13:01:46.328Z,100903.84
2022-08-30T13:04:17.295Z,100899.22
2022-08-30T13:06:45.189Z,100903.84
2022-08-30T13:09:12.998Z,100908.28
2022-08-30T13:11:41.267Z,100912.72
2022-08-30T13:14:09.038Z,100902.59
2022-08-30T13:16:36.895Z,100902.59
2022-08-30T13:19:05.120Z,100901.09
2022-08-30T13:21:32.841Z,100907.25
2022-08-30T13:24:01.695Z,100898.16
2022-08-30T13:26:29.727Z,100900.88
2022-08-30T13:28:57.886Z,100902.59
2022-08-30T13:31:27.188Z,100897.97
2022-08-30T13:33:55.369Z,100900.69
2022-08-30T13:36:23.179Z,100895.88
2022-08-30T13:38:52.728Z,100899.66
2022-08-30T13:41:21.462Z,100893.78
2022-08-30T13:46:37.050Z,100892.66
2022-08-30T13:49:04.889Z,100892.88
2022-08-30T13:51:32.614Z,100887.44
2022-08-30T13:54:01.135Z,100889.34
2022-08-30T13:56:31.719Z,100887.00
2022-08-30T13:58:59.555Z,100888.31
2022-08-30T14:01:27.448Z,100877.53
2022-08-30T14:09:31.125Z,100888.06
2022-08-30T14:11:58.830Z,100885.09
2022-08-30T14:14:42.836Z,100880.88
2022-08-30T14:17:12.408Z,100879.38
2022-08-30T14:19:40.336Z,100881.25
2022-08-30T14:22:08.046Z,100878.97
2022-08-30T14:24:35.987Z,100872.63
2022-08-30T14:27:03.999Z,100879.19
2022-08-30T14:29:31.782Z,100879.19
2022-08-30T14:32:00.408Z,100885.31
2022-08-30T14:34:28.204Z,100880.22
2022-08-30T14:36:56.460Z,100878.13
2022-08-30T14:39:24.266Z,100876.44
2022-08-30T14:41:52.056Z,100878.34
2022-08-30T14:44:19.790Z,100882.56
2022-08-30T14:46:47.520Z,100876.03
2022-08-30T14:49:15.520Z,100872.84
2022-08-30T14:51:43.320Z,100877.47
2022-08-30T14:54:11.070Z,100883.59
2022-08-30T14:56:39.797Z,100868.66
2022-08-30T14:59:07.900Z,100867.63
2022-08-30T15:01:37.061Z,100864.22
2022-08-30T15:04:07.230Z,100865.06
2022-08-30T15:06:36.058Z,100865.91
2022-08-30T15:09:03.839Z,100874.97
2022-08-30T15:11:31.636Z,100871.22
2022-08-30T15:14:01.792Z,100869.31
2022-08-30T15:16:29.868Z,100866.75
2022-08-30T15:18:57.635Z,100869.50
2022-08-30T15:21:25.531Z,100869.50
2022-08-30T15:23:53.308Z,100866.75
2022-08-30T15:26:31.121Z,100859.78
2022-08-30T15:28:58.959Z,100867.63
2022-08-30T15:31:28.132Z,100866.75
2022-08-30T15:33:56.620Z,100872.25
2022-08-30T15:36:24.475Z,100877.28
2022-08-30T15:38:52.262Z,100875.19
2022-08-30T15:41:21.096Z,100867.81
2022-08-30T15:43:48.896Z,100874.34
2022-08-30T15:46:16.673Z,100863.41
2022-08-30T15:48:45.743Z,100863.19
2022-08-30T15:51:13.670Z,100864.22
2022-08-30T15:53:41.501Z,100858.75
2022-08-30T15:56:11.684Z,100856.19
2022-08-30T15:58:40.526Z,100856.19
2022-08-30T16:01:08.624Z,100857.91
2022-08-30T16:03:37.841Z,100852.44
2022-08-30T16:06:08.270Z,100849.88
2022-08-30T16:08:36.793Z,100849.88
2022-08-30T16:11:04.511Z,100846.28
2022-08-30T16:13:32.631Z,100835.13
2022-08-30T16:16:00.349Z,100834.28
2022-08-30T16:18:28.081Z,100827.94
2022-08-30T16:20:55.784Z,100836.00
2022-08-30T16:23:23.492Z,100833.44
2022-08-30T16:25:52.081Z,100828.78
2022-08-30T16:28:19.872Z,100834.28
2022-08-30T16:30:49.001Z,100836.19
2022-08-30T16:33:18.046Z,100834.28
2022-08-30T16:35:45.768Z,100830.69
2022-08-30T16:38:13.701Z,100820.78
2022-08-30T16:40:41.529Z,100820.78
2022-08-30T16:43:11.527Z,100818.88
2022-08-30T16:45:42.554Z,100816.16
2022-08-30T16:48:10.383Z,100826.06
2022-08-30T16:50:39.787Z,100818.88
2022-08-30T16:53:08.032Z,100813.41
2022-08-30T16:55:36.254Z,100820.78
2022-08-30T16:58:04.731Z,100817.84
2022-08-30T17:00:32.526Z,100813.41
2022-08-30T17:03:00.670Z,100815.50
2022-08-30T17:05:28.421Z,100820.78
2022-08-30T17:07:58.147Z,100814.44
2022-08-30T17:10:33.356Z,100818.06
2022-08-30T17:13:01.152Z,100811.69
2022-08-30T17:15:32.078Z,100818.22
2022-08-30T17:18:00.070Z,100818.88
2022-08-30T17:23:36.199Z,100809.19
2022-08-30T17:26:06.081Z,100812.75
2022-08-30T17:28:33.808Z,100821.81
2022-08-30T17:31:01.491Z,100813.59
2022-08-30T17:33:30.316Z,100811.06
2022-08-30T17:35:58.043Z,100812.09
2022-08-30T17:38:25.753Z,100820.31
2022-08-30T17:41:01.282Z,100827.69
2022-08-30T17:43:29.756Z,100826.88
2022-08-30T17:45:57.832Z,100825.81
2022-08-30T17:48:33.751Z,100822.22
2022-08-30T17:51:01.594Z,100833.19
2022-08-30T17:53:29.306Z,100836.75
2022-08-30T17:55:58.607Z,100838.47
2022-08-30T17:58:26.566Z,100843.97
2022-08-30T18:00:57.866Z,100845.81
2022-08-30T18:03:28.428Z,100858.69
2022-08-30T18:05:56.194Z,100857.84
2022-08-30T18:08:24.012Z,100857.84
2022-08-30T18:10:52.309Z,100857.00
2022-08-30T18:13:19.969Z,100860.78
2022-08-30T18:15:47.821Z,100863.72
2022-08-30T18:18:18.552Z,100858.03
2022-08-30T18:20:47.349Z,100859.94
2022-08-30T18:23:15.081Z,100865.41
2022-08-30T18:25:43.413Z,100868.16
2022-08-30T18:30:56.770Z,100875.53
2022-08-30T18:33:24.899Z,100876.59
2022-08-30T18:36:00.249Z,100883.94
2022-08-30T18:41:43.427Z,100898.88
2022-08-30T18:44:27.140Z,100903.31
2022-08-30T18:47:26.690Z,100898.88
2022-08-30T18:49:54.582Z,100890.66
2022-08-30T18:52:22.552Z,100886.88
2022-08-30T18:55:07.205Z,100908.81
2022-08-30T18:57:37.825Z,100891.72
2022-08-30T19:00:33.510Z,100896.13
2022-08-30T19:05:55.542Z,100893.41
2022-08-30T19:08:23.271Z,100900.59
2022-08-30T19:10:51.216Z,100899.53
2022-08-30T19:13:19.869Z,100888.78
2022-08-30T19:15:47.997Z,100892.56
2022-08-30T19:18:17.132Z,100896.13
2022-08-30T19:20:45.257Z,100891.53
2022-08-30T19:23:12.984Z,100900.78
2022-08-30T19:25:40.693Z,100893.41
2022-08-30T19:28:08.423Z,100904.34
2022-08-30T19:30:36.231Z,100898.03
2022-08-30T19:33:03.960Z,100904.34
2022-08-30T19:35:33.541Z,100904.56
2022-08-30T19:38:01.264Z,100907.31
2022-08-30T19:40:29.033Z,100906.47
2022-08-30T19:42:58.558Z,100907.31
2022-08-30T19:45:26.661Z,100908.16
2022-08-30T19:47:54.462Z,100911.94
2022-08-30T19:50:22.245Z,100906.47
2022-08-30T19:52:54.213Z,100912.97
2022-08-30T19:55:23.832Z,100915.72
2022-08-30T19:57:56.650Z,100900.34
2022-08-30T20:00:24.482Z,100913.81
2022-08-30T20:02:52.266Z,100916.78
2022-08-30T20:05:21.460Z,100914.88
2022-08-30T20:07:51.104Z,100918.66
2022-08-30T20:10:19.935Z,100922.25
2022-08-30T20:12:49.874Z,100920.53
2022-08-30T20:15:18.201Z,100927.06
2022-08-30T20:18:03.268Z,100924.34
2022-08-30T20:20:33.701Z,100921.81
2022-08-30T20:23:04.537Z,100918.84
2022-08-30T20:25:32.783Z,100933.59
2022-08-30T20:28:01.727Z,100924.53
2022-08-30T20:30:29.495Z,100924.34
2022-08-30T20:32:57.455Z,100920.09
2022-08-30T20:35:25.193Z,100920.94
2022-08-30T20:37:53.024Z,100915.44
2022-08-30T20:40:21.923Z,100919.25
2022-08-30T20:42:49.895Z,100922.81
2022-08-30T20:45:17.606Z,100918.41
2022-08-30T20:47:45.273Z,100914.59
2022-08-30T20:50:13.929Z,100920.94
2022-08-30T20:52:42.084Z,100929.16
2022-08-30T20:55:10.068Z,100934.00
2022-08-30T20:57:37.823Z,100916.69
2022-08-30T21:00:05.686Z,100931.25
2022-08-30T21:02:35.515Z,100932.28
2022-08-30T21:05:03.481Z,100936.09
2022-08-30T21:07:31.338Z,100936.09
2022-08-30T21:09:59.791Z,100939.66
2022-08-30T21:12:27.549Z,100933.34
2022-08-30T21:14:55.248Z,100944.31
2022-08-30T21:17:22.999Z,100943.63
2022-08-30T21:19:50.731Z,100949.97
2022-08-30T21:22:18.494Z,100939.00
2022-08-30T21:24:46.505Z,100939.84
2022-08-30T21:27:14.329Z,100944.69
2022-08-30T21:29:42.233Z,100939.00
2022-08-30T21:32:10.397Z,100933.53
2022-08-30T21:34:59.025Z,100940.06
2022-08-30T21:37:26.132Z,100934.75
2022-08-30T21:39:54.917Z,100950.19
2022-08-30T21:42:23.600Z,100955.66
2022-08-30T21:44:51.326Z,100957.53
2022-08-30T21:47:23.254Z,100958.41
2022-08-30T21:49:51.813Z,100951.19
2022-08-30T21:52:19.595Z,100947.44
2022-08-30T21:54:48.589Z,100950.34
2022-08-30T21:57:16.950Z,100955.00
2022-08-30T21:59:44.816Z,100951.41
2022-08-30T22:02:12.782Z,100955.84
2022-08-30T22:04:40.507Z,100952.25
2022-08-30T22:07:08.646Z,100955.84
2022-08-30T22:09:36.332Z,100956.88
2022-08-30T22:12:04.039Z,100952.66
2022-08-30T22:14:34.660Z,100954.16
2022-08-30T22:17:02.770Z,100954.34
2022-08-30T22:19:31.584Z,100954.34
2022-08-30T22:22:01.902Z,100961.50
2022-08-30T22:24:32.764Z,100963.59
2022-08-30T22:27:00.668Z,100962.72
2022-08-30T22:29:29.386Z,100960.88
2022-08-30T22:31:57.203Z,100955.38
2022-08-30T22:34:25.040Z,100958.13
2022-08-30T22:36:52.755Z,100950.75
2022-08-30T22:39:20.586Z,100956.88
2022-08-30T22:41:48.454Z,100959.81
2022-08-30T22:44:16.197Z,100956.22
2022-08-30T22:46:43.968Z,100958.13
2022-08-30T22:49:11.721Z,100954.16
2022-08-30T22:51:39.473Z,100961.72
2022-08-30T22:54:07.175Z,100959.81
2022-08-30T22:56:34.958Z,100960.88
2022-08-30T22:59:02.776Z,100963.59
2022-08-30T23:01:30.680Z,100967.19
2022-08-30T23:03:58.428Z,100970.94
2022-08-30T23:06:26.187Z,100971.81
2022-08-30T23:08:53.917Z,100972.66
2022-08-30T23:11:21.640Z,100980.03
2022-08-30T23:13:49.366Z,100980.03
2022-08-30T23:16:17.155Z,100980.22
2022-08-30T23:18:44.958Z,100981.06
2022-08-30T23:21:12.702Z,100981.06
2022-08-30T23:23:58.101Z,100981.06
2022-08-30T23:26:43.580Z,100983.13
2022-08-30T23:29:29.004Z,100974.09
2022-08-30T23:32:14.339Z,100977.66
2022-08-30T23:34:59.920Z,100981.44
2022-08-30T23:37:45.351Z,100978.06
2022-08-30T23:40:34.082Z,100981.84
2022-08-30T23:43:19.739Z,100980.13
2022-08-30T23:46:05.292Z,100985.25
2022-08-30T23:48:52.141Z,100981.00
2022-08-30T23:51:37.914Z,100979.09
2022-08-30T23:54:23.466Z,100984.75
2022-08-30T23:57:08.790Z,100976.53
2022-08-30T23:59:53.908Z,100979.28
